createdAt,value
2022-09-15T00:00:47.631Z,9.358600
2022-09-15T00:01:47.746Z,9.358581
2022-09-15T00:02:47.661Z,9.358581
2022-09-15T00:03:47.668Z,9.358602
2022-09-15T00:04:47.614Z,9.358582
2022-09-15T00:05:47.611Z,9.358594
2022-09-15T00:06:47.682Z,9.358514
2022-09-15T00:07:47.552Z,9.358524
2022-09-15T00:08:47.688Z,9.358541
2022-09-15T00:09:47.550Z,9.358496
2022-09-15T00:10:47.538Z,9.358510
2022-09-15T00:11:47.594Z,9.358552
2022-09-15T00:12:47.479Z,9.358596
2022-09-15T00:13:47.534Z,9.358576
2022-09-15T00:14:47.487Z,9.358626
2022-09-15T00:15:47.464Z,9.358682
2022-09-15T00:16:47.624Z,9.358639
2022-09-15T00:17:47.464Z,9.358518
2022-09-15T00:18:47.433Z,9.358558
2022-09-15T00:19:47.443Z,9.358582
2022-09-15T00:20:47.365Z,9.358583
2022-09-15T00:21:47.482Z,9.358553
2022-09-15T00:22:47.379Z,9.358552
2022-09-15T00:23:47.415Z,9.358553
2022-09-15T00:24:47.384Z,9.358554
2022-09-15T00:25:47.330Z,9.358546
2022-09-15T00:26:47.428Z,9.358561
2022-09-15T00:27:47.321Z,9.358540
2022-09-15T00:28:47.359Z,9.358522
2022-09-15T00:29:47.314Z,9.358523
2022-09-15T00:30:47.340Z,9.358580
2022-09-15T00:31:47.355Z,9.358616
2022-09-15T00:32:47.281Z,9.358616
2022-09-15T00:33:47.279Z,9.358562
2022-09-15T00:34:47.240Z,9.358509
2022-09-15T00:35:47.283Z,9.358505
2022-09-15T00:36:47.309Z,9.358503
2022-09-15T00:37:47.217Z,9.358574
2022-09-15T00:38:47.207Z,9.358562
2022-09-15T00:39:47.215Z,9.358520
2022-09-15T00:40:47.214Z,9.358508
2022-09-15T00:41:47.233Z,9.358477
2022-09-15T00:42:47.193Z,9.358534
2022-09-15T00:43:47.181Z,9.358567
2022-09-15T00:44:47.151Z,9.358570
2022-09-15T00:45:47.191Z,9.358613
2022-09-15T00:47:04.055Z,9.358527
2022-09-15T00:47:49.141Z,9.358503
2022-09-15T00:48:47.090Z,9.358486
2022-09-15T00:49:47.057Z,9.358542
2022-09-15T00:50:47.069Z,9.358546
2022-09-15T00:51:47.093Z,9.358487
2022-09-15T00:52:47.056Z,9.358522
2022-09-15T00:53:47.061Z,9.358544
2022-09-15T00:54:47.053Z,9.358500
2022-09-15T00:55:47.029Z,9.358520
2022-09-15T00:56:47.041Z,9.358568
2022-09-15T00:57:47.005Z,9.358568
2022-09-15T00:58:46.975Z,9.358584
2022-09-15T00:59:47.018Z,9.358624
2022-09-15T01:00:46.972Z,9.358549
2022-09-15T01:01:47.066Z,9.358560
2022-09-15T01:02:46.896Z,9.358597
2022-09-15T01:03:46.925Z,9.358594
2022-09-15T01:04:46.924Z,9.358616
2022-09-15T01:05:46.869Z,9.358575
2022-09-15T01:06:46.893Z,9.358481
2022-09-15T01:07:46.854Z,9.358432
2022-09-15T01:08:46.820Z,9.358472
2022-09-15T01:09:46.836Z,9.358520
2022-09-15T01:10:46.831Z,9.358574
2022-09-15T01:11:46.855Z,9.358575
2022-09-15T01:12:46.793Z,9.358464
2022-09-15T01:13:46.814Z,9.358451
2022-09-15T01:14:46.805Z,9.358509
2022-09-15T01:15:46.753Z,9.358509
2022-09-15T01:16:46.818Z,9.358455
2022-09-15T01:17:46.740Z,9.358477
2022-09-15T01:18:46.729Z,9.358455
2022-09-15T01:19:46.791Z,9.358515
2022-09-15T01:20:46.731Z,9.358474
2022-09-15T01:21:46.712Z,9.358520
2022-09-15T01:22:46.656Z,9.358576
2022-09-15T01:23:46.655Z,9.358589
2022-09-15T01:24:46.677Z,9.358584
2022-09-15T01:25:46.708Z,9.358599
2022-09-15T01:26:46.703Z,9.358547
2022-09-15T01:27:46.621Z,9.358588
2022-09-15T01:28:46.611Z,9.358608
2022-09-15T01:29:46.645Z,9.358635
2022-09-15T01:30:46.603Z,9.358614
2022-09-15T01:31:46.656Z,9.358562
2022-09-15T01:32:46.681Z,9.358521
2022-09-15T01:33:46.575Z,9.358537
2022-09-15T01:34:46.543Z,9.358517
2022-09-15T01:35:46.542Z,9.358607
2022-09-15T01:36:46.540Z,9.358575
2022-09-15T01:37:46.544Z,9.358522
2022-09-15T01:38:46.516Z,9.358527
2022-09-15T01:39:46.554Z,9.358489
2022-09-15T01:40:46.551Z,9.358412
2022-09-15T01:41:46.497Z,9.358528
2022-09-15T01:42:46.502Z,9.358624
2022-09-15T01:43:46.438Z,9.358674
2022-09-15T01:44:46.431Z,9.358664
2022-09-15T01:45:46.526Z,9.358570
2022-09-15T01:46:46.449Z,9.358573
2022-09-15T01:47:46.441Z,9.358552
2022-09-15T01:48:46.465Z,9.358566
2022-09-15T01:49:46.394Z,9.358579
2022-09-15T01:50:46.342Z,9.358524
2022-09-15T01:51:46.399Z,9.358573
2022-09-15T01:52:46.352Z,9.358540
2022-09-15T01:53:46.333Z,9.358495
2022-09-15T01:54:46.382Z,9.358450
2022-09-15T01:55:46.292Z,9.358425
2022-09-15T01:56:46.339Z,9.358458
2022-09-15T01:57:46.235Z,9.358462
2022-09-15T01:58:46.284Z,9.358431
2022-09-15T01:59:46.246Z,9.358448
2022-09-15T02:00:46.329Z,9.358535
2022-09-15T02:01:46.301Z,9.358552
2022-09-15T02:02:46.207Z,9.358500
2022-09-15T02:03:46.199Z,9.358466
2022-09-15T02:04:47.195Z,9.358447
2022-09-15T02:05:46.200Z,9.358502
2022-09-15T02:06:46.249Z,9.358554
2022-09-15T02:07:46.211Z,9.358577
2022-09-15T02:08:47.179Z,9.358500
2022-09-15T02:09:46.194Z,9.358538
2022-09-15T02:10:46.144Z,9.358549
2022-09-15T02:11:46.196Z,9.358590
2022-09-15T02:12:46.118Z,9.358552
2022-09-15T02:13:46.127Z,9.358508
2022-09-15T02:14:46.102Z,9.358549
2022-09-15T02:15:46.079Z,9.358592
2022-09-15T02:16:46.157Z,9.358583
2022-09-15T02:17:46.111Z,9.358568
2022-09-15T02:18:46.062Z,9.358532
2022-09-15T02:19:46.022Z,9.358489
2022-09-15T02:20:46.003Z,9.358477
2022-09-15T02:21:46.071Z,9.358491
2022-09-15T02:22:46.088Z,9.358527
2022-09-15T02:23:46.004Z,9.358577
2022-09-15T02:24:45.960Z,9.358602
2022-09-15T02:25:45.972Z,9.358603
2022-09-15T02:26:45.971Z,9.358570
2022-09-15T02:27:46.001Z,9.358548
2022-09-15T02:28:45.950Z,9.358550
2022-09-15T02:29:45.931Z,9.358581
2022-09-15T02:30:45.942Z,9.358566
2022-09-15T02:31:45.972Z,9.358637
2022-09-15T02:32:45.926Z,9.358694
2022-09-15T02:33:45.889Z,9.358612
2022-09-15T02:34:45.867Z,9.358566
2022-09-15T02:35:45.832Z,9.358526
2022-09-15T02:36:45.885Z,9.358607
2022-09-15T02:37:45.851Z,9.358581
2022-09-15T02:38:45.797Z,9.358530
2022-09-15T02:39:45.826Z,9.358538
2022-09-15T02:40:45.788Z,9.358589
2022-09-15T02:41:45.789Z,9.358589
2022-09-15T02:42:45.849Z,9.358601
2022-09-15T02:43:45.753Z,9.358582
2022-09-15T02:44:45.737Z,9.358580
2022-09-15T02:45:45.873Z,9.358584
2022-09-15T02:46:45.738Z,9.358584
2022-09-15T02:47:45.761Z,9.358608
2022-09-15T02:48:45.709Z,9.358592
2022-09-15T02:49:45.692Z,9.358547
2022-09-15T02:50:45.703Z,9.358525
2022-09-15T02:51:45.804Z,9.358526
2022-09-15T02:52:45.721Z,9.358579
2022-09-15T02:53:45.647Z,9.358573
2022-09-15T02:54:45.642Z,9.358595
2022-09-15T02:55:45.604Z,9.358607
2022-09-15T02:56:45.624Z,9.358593
2022-09-15T02:57:45.666Z,9.358593
2022-09-15T02:58:45.599Z,9.358598
2022-09-15T02:59:45.462Z,9.358587
2022-09-15T03:00:45.566Z,9.358606
2022-09-15T03:01:45.575Z,9.358671
2022-09-15T03:02:45.610Z,9.358654
2022-09-15T03:03:45.653Z,9.358553
2022-09-15T03:04:45.522Z,9.358538
2022-09-15T03:05:45.541Z,9.358614
2022-09-15T03:06:45.492Z,9.358632
2022-09-15T03:07:45.562Z,9.358605
2022-09-15T03:08:45.526Z,9.358582
2022-09-15T03:09:45.489Z,9.358608
2022-09-15T03:10:45.450Z,9.358664
2022-09-15T03:11:45.442Z,9.358654
2022-09-15T03:12:45.522Z,9.358625
2022-09-15T03:13:45.414Z,9.358638
2022-09-15T03:14:45.422Z,9.358610
2022-09-15T03:15:45.382Z,9.358655
2022-09-15T03:16:45.415Z,9.358546
2022-09-15T03:17:45.445Z,9.358561
2022-09-15T03:18:45.401Z,9.358625
2022-09-15T03:19:45.356Z,9.358579
2022-09-15T03:20:45.348Z,9.358603
2022-09-15T03:21:45.411Z,9.358624
2022-09-15T03:22:45.345Z,9.358656
2022-09-15T03:23:45.368Z,9.358656
2022-09-15T03:24:45.277Z,9.358601
2022-09-15T03:25:45.289Z,9.358602
2022-09-15T03:26:45.323Z,9.358550
2022-09-15T03:27:45.350Z,9.358562
2022-09-15T03:28:45.272Z,9.358566
2022-09-15T03:29:45.240Z,9.358587
2022-09-15T03:30:45.227Z,9.358519
2022-09-15T03:31:45.269Z,9.358451
2022-09-15T03:32:45.286Z,9.358463
2022-09-15T03:33:45.176Z,9.358573
2022-09-15T03:34:45.144Z,9.358616
2022-09-15T03:35:45.185Z,9.358570
2022-09-15T03:36:45.141Z,9.358553
2022-09-15T03:37:45.190Z,9.358582
2022-09-15T03:38:45.270Z,9.358599
2022-09-15T03:39:45.176Z,9.358659
2022-09-15T03:40:45.101Z,9.358609
2022-09-15T03:41:45.078Z,9.358547
2022-09-15T03:42:45.188Z,9.358621
2022-09-15T03:43:45.178Z,9.358543
2022-09-15T03:44:45.061Z,9.358529
2022-09-15T03:45:45.119Z,9.358541
2022-09-15T03:46:45.057Z,9.358573
2022-09-15T03:47:45.141Z,9.358579
2022-09-15T03:48:45.030Z,9.358548
2022-09-15T03:49:45.018Z,9.358603
2022-09-15T03:50:46.026Z,9.358641
2022-09-15T03:51:44.980Z,9.358625
2022-09-15T03:52:45.001Z,9.358651
2022-09-15T03:53:44.996Z,9.358615
2022-09-15T03:54:44.932Z,9.358576
2022-09-15T03:55:44.930Z,9.358486
2022-09-15T03:56:44.962Z,9.358486
2022-09-15T03:57:44.958Z,9.358561
2022-09-15T03:58:44.898Z,9.358544
2022-09-15T03:59:44.888Z,9.358539
2022-09-15T04:00:44.921Z,9.358540
2022-09-15T04:01:44.956Z,9.358633
2022-09-15T04:02:44.889Z,9.358631
2022-09-15T04:03:50.131Z,9.358569
2022-09-15T04:04:46.901Z,9.358541
2022-09-15T04:05:44.849Z,9.358489
2022-09-15T04:06:44.843Z,9.358481
2022-09-15T04:07:44.846Z,9.358526
2022-09-15T04:08:44.842Z,9.358542
2022-09-15T04:09:44.791Z,9.358558
2022-09-15T04:10:44.773Z,9.358549
2022-09-15T04:11:44.764Z,9.358487
2022-09-15T04:12:44.799Z,9.358422
2022-09-15T04:13:44.748Z,9.358428
2022-09-15T04:14:44.717Z,9.358474
2022-09-15T04:15:44.734Z,9.358501
2022-09-15T04:16:44.739Z,9.358515
2022-09-15T04:17:44.712Z,9.358541
2022-09-15T04:18:44.684Z,9.358518
2022-09-15T04:19:44.660Z,9.358615
2022-09-15T04:20:44.627Z,9.358595
2022-09-15T04:21:44.638Z,9.358526
2022-09-15T04:22:44.683Z,9.358525
2022-09-15T04:23:44.643Z,9.358533
2022-09-15T04:24:44.685Z,9.358552
2022-09-15T04:25:44.578Z,9.358509
2022-09-15T04:26:44.576Z,9.358392
2022-09-15T04:27:44.610Z,9.358380
2022-09-15T04:28:44.577Z,9.358373
2022-09-15T04:29:44.543Z,9.358446
2022-09-15T04:30:44.541Z,9.358485
2022-09-15T04:31:44.542Z,9.358476
2022-09-15T04:32:44.564Z,9.358431
2022-09-15T04:33:44.542Z,9.358496
2022-09-15T04:34:44.527Z,9.358457
2022-09-15T04:35:44.480Z,9.358439
2022-09-15T04:36:44.471Z,9.358441
2022-09-15T04:37:44.553Z,9.358468
2022-09-15T04:38:44.547Z,9.358541
2022-09-15T04:39:44.550Z,9.358558
2022-09-15T04:40:44.438Z,9.358454
2022-09-15T04:41:44.408Z,9.358462
2022-09-15T04:42:44.421Z,9.358434
2022-09-15T04:43:44.454Z,9.358433
2022-09-15T04:44:44.429Z,9.358458
2022-09-15T04:45:44.383Z,9.358481
2022-09-15T04:46:44.382Z,9.358327
2022-09-15T04:47:44.586Z,9.358344
2022-09-15T04:48:44.308Z,9.358391
2022-09-15T04:49:44.317Z,9.358329
2022-09-15T04:50:44.302Z,9.358450
2022-09-15T04:51:44.335Z,9.358527
2022-09-15T04:52:44.304Z,9.358492
2022-09-15T04:53:44.441Z,9.358496
2022-09-15T04:54:44.272Z,9.358492
2022-09-15T04:55:44.251Z,9.358469
2022-09-15T04:56:44.213Z,9.358506
2022-09-15T04:57:44.273Z,9.358453
2022-09-15T04:58:44.178Z,9.358536
2022-09-15T04:59:44.214Z,9.358501
2022-09-15T05:00:44.207Z,9.358508
2022-09-15T05:01:44.270Z,9.358537
2022-09-15T05:02:44.204Z,9.358526
2022-09-15T05:03:44.180Z,9.358551
2022-09-15T05:04:44.260Z,9.358527
2022-09-15T05:05:44.185Z,9.358481
2022-09-15T05:06:44.104Z,9.358500
2022-09-15T05:07:44.163Z,9.358542
2022-09-15T05:08:44.080Z,9.358577
2022-09-15T05:09:44.135Z,9.358511
2022-09-15T05:10:44.198Z,9.358523
2022-09-15T05:11:44.148Z,9.358500
2022-09-15T05:12:44.192Z,9.358493
2022-09-15T05:13:44.033Z,9.358454
2022-09-15T05:14:44.113Z,9.358502
2022-09-15T05:15:44.127Z,9.358484
2022-09-15T05:16:44.150Z,9.358492
2022-09-15T05:17:44.092Z,9.358506
2022-09-15T05:18:44.102Z,9.358517
2022-09-15T05:19:44.067Z,9.358542
2022-09-15T05:20:44.101Z,9.358479
2022-09-15T05:21:44.003Z,9.358490
2022-09-15T05:22:44.061Z,9.358505
2022-09-15T05:23:44.014Z,9.358500
2022-09-15T05:24:43.952Z,9.358530
2022-09-15T05:25:44.053Z,9.358553
2022-09-15T05:26:44.002Z,9.358529
2022-09-15T05:27:44.042Z,9.358461
2022-09-15T05:28:43.886Z,9.358507
2022-09-15T05:29:43.945Z,9.358540
2022-09-15T05:30:44.660Z,9.358535
2022-09-15T05:31:45.073Z,9.358516
2022-09-15T05:32:43.852Z,9.358467
2022-09-15T05:33:43.870Z,9.358509
2022-09-15T05:34:43.851Z,9.358520
2022-09-15T05:35:43.855Z,9.358510
2022-09-15T05:36:44.039Z,9.358456
2022-09-15T05:37:44.036Z,9.358464
2022-09-15T05:38:43.899Z,9.358453
2022-09-15T05:39:43.729Z,9.358461
2022-09-15T05:40:43.737Z,9.358459
2022-09-15T05:41:44.108Z,9.358387
2022-09-15T05:42:43.804Z,9.358474
2022-09-15T05:43:43.821Z,9.358505
2022-09-15T05:44:43.756Z,9.358600
2022-09-15T05:45:43.762Z,9.358622
2022-09-15T05:46:43.848Z,9.358468
2022-09-15T05:47:43.659Z,9.358430
2022-09-15T05:48:43.736Z,9.358501
2022-09-15T05:49:43.649Z,9.358535
2022-09-15T05:50:43.715Z,9.358591
2022-09-15T05:51:43.739Z,9.358535
2022-09-15T05:52:43.661Z,9.358553
2022-09-15T05:53:43.591Z,9.358535
2022-09-15T05:54:43.571Z,9.358487
2022-09-15T05:55:43.680Z,9.358505
2022-09-15T05:56:43.707Z,9.358576
2022-09-15T05:57:43.666Z,9.358594
2022-09-15T05:58:43.523Z,9.358617
2022-09-15T05:59:43.541Z,9.358627
2022-09-15T06:00:43.493Z,9.358605
2022-09-15T06:01:44.097Z,9.358521
2022-09-15T06:02:43.569Z,9.358444
2022-09-15T06:03:43.559Z,9.358488
2022-09-15T06:04:43.551Z,9.358498
2022-09-15T06:05:43.570Z,9.358563
2022-09-15T06:06:43.838Z,9.358582
2022-09-15T06:07:43.507Z,9.358563
2022-09-15T06:08:44.486Z,9.358561
2022-09-15T06:09:44.429Z,9.358609
2022-09-15T06:10:43.502Z,9.358546
2022-09-15T06:11:43.547Z,9.358544
2022-09-15T06:12:43.375Z,9.358593
2022-09-15T06:13:43.442Z,9.358594
2022-09-15T06:14:43.449Z,9.358633
2022-09-15T06:15:43.454Z,9.358618
2022-09-15T06:16:43.409Z,9.358541
2022-09-15T06:17:43.389Z,9.358586
2022-09-15T06:18:43.276Z,9.358587
2022-09-15T06:19:43.309Z,9.358533
2022-09-15T06:20:43.359Z,9.358560
2022-09-15T06:21:43.361Z,9.358565
2022-09-15T06:22:43.328Z,9.358566
2022-09-15T06:23:47.162Z,9.358524
2022-09-15T06:24:45.263Z,9.358501
2022-09-15T06:25:43.497Z,9.358546
2022-09-15T06:26:43.613Z,9.358567
2022-09-15T06:27:43.219Z,9.358610
2022-09-15T06:28:43.257Z,9.358563
2022-09-15T06:29:43.272Z,9.358600
2022-09-15T06:30:43.162Z,9.358649
2022-09-15T06:31:43.344Z,9.358680
2022-09-15T06:32:47.428Z,9.358663
2022-09-15T06:33:45.284Z,9.358622
2022-09-15T06:34:44.208Z,9.358585
2022-09-15T06:35:43.210Z,9.358558
2022-09-15T06:36:43.145Z,9.358553
2022-09-15T06:37:43.185Z,9.358597
2022-09-15T06:38:43.130Z,9.358616
2022-09-15T06:39:43.172Z,9.358591
2022-09-15T06:40:43.132Z,9.358581
2022-09-15T06:42:01.306Z,9.358633
2022-09-15T06:42:45.188Z,9.358614
2022-09-15T06:43:43.080Z,9.358556
2022-09-15T06:44:43.090Z,9.358486
2022-09-15T06:45:43.067Z,9.358513
2022-09-15T06:46:43.015Z,9.358542
2022-09-15T06:47:42.998Z,9.358574
2022-09-15T06:48:47.449Z,9.358556
2022-09-15T06:49:44.991Z,9.358550
2022-09-15T06:50:42.936Z,9.358580
2022-09-15T06:51:43.085Z,9.358563
2022-09-15T06:52:42.914Z,9.358556
2022-09-15T06:53:42.964Z,9.358485
2022-09-15T06:54:42.981Z,9.358464
2022-09-15T06:55:42.856Z,9.358459
2022-09-15T06:56:43.023Z,9.358436
2022-09-15T06:57:42.867Z,9.358511
2022-09-15T06:58:42.995Z,9.358593
2022-09-15T06:59:42.836Z,9.358644
2022-09-15T07:00:42.937Z,9.358703
2022-09-15T07:01:43.227Z,9.358671
2022-09-15T07:02:43.011Z,9.358577
2022-09-15T07:03:42.943Z,9.358511
2022-09-15T07:04:42.797Z,9.358491
2022-09-15T07:05:42.878Z,9.358521
2022-09-15T07:06:42.822Z,9.358514
2022-09-15T07:07:42.840Z,9.358463
2022-09-15T07:08:42.875Z,9.358447
2022-09-15T07:09:46.034Z,9.358501
2022-09-15T07:10:43.885Z,9.358500
2022-09-15T07:11:42.934Z,9.358503
2022-09-15T07:12:42.804Z,9.358522
2022-09-15T07:13:42.790Z,9.358596
2022-09-15T07:14:42.666Z,9.358590
2022-09-15T07:15:42.681Z,9.358561
2022-09-15T07:16:42.824Z,9.358508
2022-09-15T07:17:42.675Z,9.358553
2022-09-15T07:18:43.697Z,9.358532
2022-09-15T07:19:43.595Z,9.358561
2022-09-15T07:20:42.718Z,9.358597
2022-09-15T07:21:42.983Z,9.358510
2022-09-15T07:22:42.653Z,9.358438
2022-09-15T07:23:42.730Z,9.358418
2022-09-15T07:24:42.676Z,9.358465
2022-09-15T07:25:42.610Z,9.358514
2022-09-15T07:26:42.582Z,9.358545
2022-09-15T07:27:42.622Z,9.358544
2022-09-15T07:28:42.630Z,9.358578
2022-09-15T07:29:42.486Z,9.358552
2022-09-15T07:30:42.495Z,9.358623
2022-09-15T07:31:42.629Z,9.358570
2022-09-15T07:32:42.543Z,9.358467
2022-09-15T07:33:42.623Z,9.358507
2022-09-15T07:34:42.567Z,9.358533
2022-09-15T07:35:42.429Z,9.358537
2022-09-15T07:36:42.481Z,9.358562
2022-09-15T07:37:42.497Z,9.358556
2022-09-15T07:38:42.483Z,9.358522
2022-09-15T07:39:42.485Z,9.358536
2022-09-15T07:40:42.388Z,9.358500
2022-09-15T07:41:42.539Z,9.358503
2022-09-15T07:42:42.458Z,9.358497
2022-09-15T07:43:42.340Z,9.358478
2022-09-15T07:44:42.343Z,9.358509
2022-09-15T07:45:42.306Z,9.358512
2022-09-15T07:46:42.432Z,9.358469
2022-09-15T07:47:42.312Z,9.358479
2022-09-15T07:48:42.421Z,9.358514
2022-09-15T07:49:42.349Z,9.358486
2022-09-15T07:50:42.353Z,9.358517
2022-09-15T07:51:42.350Z,9.358549
2022-09-15T07:52:42.237Z,9.358612
2022-09-15T07:53:42.310Z,9.358613
2022-09-15T07:54:42.233Z,9.358630
2022-09-15T07:55:42.314Z,9.358571
2022-09-15T07:56:42.386Z,9.358595
2022-09-15T07:57:42.205Z,9.358576
2022-09-15T07:58:42.265Z,9.358533
2022-09-15T07:59:42.173Z,9.358542
2022-09-15T08:00:42.315Z,9.358572
2022-09-15T08:01:42.454Z,9.358541
2022-09-15T08:02:42.142Z,9.358605
2022-09-15T08:03:42.195Z,9.358680
2022-09-15T08:04:42.097Z,9.358542
2022-09-15T08:05:45.394Z,9.358459
2022-09-15T08:06:43.161Z,9.358536
2022-09-15T08:07:42.043Z,9.358541
2022-09-15T08:08:42.066Z,9.358465
2022-09-15T08:09:42.153Z,9.358553
2022-09-15T08:10:42.169Z,9.358554
2022-09-15T08:11:42.192Z,9.358526
2022-09-15T08:12:42.140Z,9.358499
2022-09-15T08:13:42.128Z,9.358486
2022-09-15T08:14:42.077Z,9.358457
2022-09-15T08:15:42.086Z,9.358554
2022-09-15T08:16:42.021Z,9.358544
2022-09-15T08:17:42.035Z,9.358571
2022-09-15T08:18:42.151Z,9.358563
2022-09-15T08:19:41.923Z,9.358548
2022-09-15T08:20:42.008Z,9.358489
2022-09-15T08:21:42.116Z,9.358477
2022-09-15T08:22:41.986Z,9.358507
2022-09-15T08:23:41.979Z,9.358530
2022-09-15T08:24:41.889Z,9.358574
2022-09-15T08:25:41.930Z,9.358541
2022-09-15T08:26:41.951Z,9.358633
2022-09-15T08:27:41.969Z,9.358633
2022-09-15T08:28:42.038Z,9.358567
2022-09-15T08:29:41.944Z,9.358548
2022-09-15T08:30:41.903Z,9.358499
2022-09-15T08:31:42.046Z,9.358494
2022-09-15T08:32:41.868Z,9.358529
2022-09-15T08:33:45.419Z,9.358512
2022-09-15T08:34:42.877Z,9.358541
2022-09-15T08:35:42.026Z,9.358505
2022-09-15T08:36:41.773Z,9.358442
2022-09-15T08:37:41.820Z,9.358399
2022-09-15T08:38:41.734Z,9.358423
2022-09-15T08:39:41.850Z,9.358450
2022-09-15T08:40:41.763Z,9.358469
2022-09-15T08:41:41.730Z,9.358457
2022-09-15T08:42:44.922Z,9.358500
2022-09-15T08:43:42.708Z,9.358592
2022-09-15T08:44:41.689Z,9.358582
2022-09-15T08:45:41.745Z,9.358510
2022-09-15T08:46:41.800Z,9.358480
2022-09-15T08:47:41.690Z,9.358487
2022-09-15T08:48:41.703Z,9.358434
2022-09-15T08:49:51.582Z,9.358489
2022-09-15T08:50:43.768Z,9.358456
2022-09-15T08:51:41.733Z,9.358491
2022-09-15T08:52:41.598Z,9.358473
2022-09-15T08:53:41.640Z,9.358475
2022-09-15T08:54:41.682Z,9.358477
2022-09-15T08:55:41.553Z,9.358510
2022-09-15T08:56:41.867Z,9.358511
2022-09-15T08:57:41.821Z,9.358501
2022-09-15T08:58:41.618Z,9.358501
2022-09-15T08:59:41.513Z,9.358491
2022-09-15T09:00:41.764Z,9.358496
2022-09-15T09:01:41.579Z,9.358483
2022-09-15T09:02:41.523Z,9.358499
2022-09-15T09:03:41.559Z,9.358480
2022-09-15T09:04:41.443Z,9.358564
2022-09-15T09:05:41.601Z,9.358528
2022-09-15T09:06:41.477Z,9.358480
2022-09-15T09:07:41.482Z,9.358501
2022-09-15T09:08:41.527Z,9.358488
2022-09-15T09:09:41.485Z,9.358464
2022-09-15T09:10:41.436Z,9.358541
2022-09-15T09:11:41.482Z,9.358521
2022-09-15T09:12:41.491Z,9.358492
2022-09-15T09:13:41.427Z,9.358501
2022-09-15T09:14:41.435Z,9.358543
2022-09-15T09:15:41.671Z,9.358568
2022-09-15T09:16:41.416Z,9.358645
2022-09-15T09:17:41.392Z,9.358606
2022-09-15T09:18:41.401Z,9.358545
2022-09-15T09:19:41.295Z,9.358542
2022-09-15T09:20:41.361Z,9.358570
2022-09-15T09:21:41.380Z,9.358549
2022-09-15T09:22:41.310Z,9.358534
2022-09-15T09:23:41.311Z,9.358534
2022-09-15T09:24:41.337Z,9.358527
2022-09-15T09:25:41.322Z,9.358561
2022-09-15T09:26:41.278Z,9.358574
2022-09-15T09:27:41.358Z,9.358582
2022-09-15T09:28:41.198Z,9.358581
2022-09-15T09:29:41.246Z,9.358584
2022-09-15T09:30:41.464Z,9.358588
2022-09-15T09:31:41.293Z,9.358553
2022-09-15T09:32:41.226Z,9.358586
2022-09-15T09:33:47.262Z,9.358623
2022-09-15T09:34:43.459Z,9.358607
2022-09-15T09:35:41.198Z,9.358603
2022-09-15T09:36:41.475Z,9.358575
2022-09-15T09:37:41.085Z,9.358501
2022-09-15T09:38:41.140Z,9.358496
2022-09-15T09:39:41.187Z,9.358519
2022-09-15T09:40:41.167Z,9.358564
2022-09-15T09:41:41.386Z,9.358556
2022-09-15T09:42:41.092Z,9.358573
2022-09-15T09:43:41.133Z,9.358544
2022-09-15T09:44:41.078Z,9.358513
2022-09-15T09:45:41.082Z,9.358461
2022-09-15T09:46:41.467Z,9.358557
2022-09-15T09:47:41.090Z,9.358551
2022-09-15T09:48:41.071Z,9.358599
2022-09-15T09:49:40.966Z,9.358545
2022-09-15T09:50:41.056Z,9.358550
2022-09-15T09:51:41.133Z,9.358584
2022-09-15T09:52:41.036Z,9.358610
2022-09-15T09:53:41.023Z,9.358608
2022-09-15T09:54:40.949Z,9.358566
2022-09-15T09:55:41.005Z,9.358554
2022-09-15T09:56:41.058Z,9.358566
2022-09-15T09:57:41.023Z,9.358528
2022-09-15T09:58:40.883Z,9.358555
2022-09-15T09:59:40.960Z,9.358541
2022-09-15T10:00:40.920Z,9.358649
2022-09-15T10:01:41.282Z,9.358652
2022-09-15T10:02:40.837Z,9.358594
2022-09-15T10:03:40.807Z,9.358596
2022-09-15T10:04:40.836Z,9.358558
2022-09-15T10:05:40.848Z,9.358520
2022-09-15T10:06:40.943Z,9.358519
2022-09-15T10:07:40.893Z,9.358507
2022-09-15T10:08:40.887Z,9.358567
2022-09-15T10:09:40.830Z,9.358547
2022-09-15T10:10:40.857Z,9.358556
2022-09-15T10:11:40.883Z,9.358560
2022-09-15T10:12:40.760Z,9.358597
2022-09-15T10:13:40.786Z,9.358628
2022-09-15T10:14:40.847Z,9.358711
2022-09-15T10:15:40.690Z,9.358704
2022-09-15T10:16:40.829Z,9.358645
2022-09-15T10:17:40.658Z,9.358562
2022-09-15T10:18:40.664Z,9.358588
2022-09-15T10:19:40.709Z,9.358515
2022-09-15T10:20:40.616Z,9.358485
2022-09-15T10:21:40.657Z,9.358498
2022-09-15T10:22:40.730Z,9.358566
2022-09-15T10:23:40.744Z,9.358516
2022-09-15T10:24:41.702Z,9.358484
2022-09-15T10:25:58.129Z,9.358520
2022-09-15T10:26:42.708Z,9.358550
2022-09-15T10:27:40.594Z,9.358571
2022-09-15T10:28:40.644Z,9.358588
2022-09-15T10:29:40.636Z,9.358573
2022-09-15T10:30:40.618Z,9.358572
2022-09-15T10:31:40.743Z,9.358591
2022-09-15T10:32:40.520Z,9.358578
2022-09-15T10:33:40.606Z,9.358527
2022-09-15T10:34:40.472Z,9.358515
2022-09-15T10:35:40.539Z,9.358537
2022-09-15T10:36:40.830Z,9.358573
2022-09-15T10:37:41.558Z,9.358565
2022-09-15T10:38:40.501Z,9.358545
2022-09-15T10:39:40.418Z,9.358547
2022-09-15T10:40:40.438Z,9.358570
2022-09-15T10:41:40.547Z,9.358562
2022-09-15T10:42:40.447Z,9.358607
2022-09-15T10:43:40.402Z,9.358517
2022-09-15T10:44:40.462Z,9.358522
2022-09-15T10:45:40.640Z,9.358474
2022-09-15T10:46:40.468Z,9.358492
2022-09-15T10:47:40.437Z,9.358498
2022-09-15T10:48:40.365Z,9.358429
2022-09-15T10:49:40.414Z,9.358392
2022-09-15T10:50:40.407Z,9.358449
2022-09-15T10:51:40.336Z,9.358458
2022-09-15T10:52:40.279Z,9.358473
2022-09-15T10:53:40.548Z,9.358496
2022-09-15T10:54:40.281Z,9.358495
2022-09-15T10:55:51.684Z,9.358550
2022-09-15T10:56:42.392Z,9.358497
2022-09-15T10:57:40.318Z,9.358467
2022-09-15T10:58:43.482Z,9.358477
2022-09-15T10:59:41.384Z,9.358539
2022-09-15T11:00:40.349Z,9.358544
2022-09-15T11:01:40.310Z,9.358573
2022-09-15T11:02:40.216Z,9.358537
2022-09-15T11:03:40.165Z,9.358549
2022-09-15T11:04:40.229Z,9.358549
2022-09-15T11:05:40.250Z,9.358564
2022-09-15T11:06:40.181Z,9.358550
2022-09-15T11:07:40.094Z,9.358568
2022-09-15T11:08:40.110Z,9.358529
2022-09-15T11:09:40.152Z,9.358552
2022-09-15T11:10:40.191Z,9.358534
2022-09-15T11:11:40.473Z,9.358530
2022-09-15T11:12:40.103Z,9.358560
2022-09-15T11:13:40.734Z,9.358546
2022-09-15T11:14:40.096Z,9.358527
2022-09-15T11:15:40.071Z,9.358588
2022-09-15T11:16:40.417Z,9.358552
2022-09-15T11:17:40.008Z,9.358535
2022-09-15T11:18:40.087Z,9.358536
2022-09-15T11:19:39.968Z,9.358561
2022-09-15T11:20:40.038Z,9.358509
2022-09-15T11:21:40.339Z,9.358524
2022-09-15T11:22:40.042Z,9.358503
2022-09-15T11:23:40.042Z,9.358459
2022-09-15T11:24:40.034Z,9.358458
2022-09-15T11:25:39.924Z,9.358454
2022-09-15T11:26:39.894Z,9.358460
2022-09-15T11:27:39.901Z,9.358446
2022-09-15T11:28:39.868Z,9.358394
2022-09-15T11:29:39.940Z,9.358489
2022-09-15T11:30:41.643Z,9.358554
2022-09-15T11:31:40.128Z,9.358534
2022-09-15T11:32:39.917Z,9.358490
2022-09-15T11:33:39.906Z,9.358507
2022-09-15T11:34:39.870Z,9.358488
2022-09-15T11:35:39.932Z,9.358492
2022-09-15T11:36:39.832Z,9.358515
2022-09-15T11:37:39.866Z,9.358524
2022-09-15T11:38:39.898Z,9.358545
2022-09-15T11:39:39.762Z,9.358541
2022-09-15T11:40:39.840Z,9.358549
2022-09-15T11:41:39.879Z,9.358544
2022-09-15T11:42:39.828Z,9.358584
2022-09-15T11:43:39.762Z,9.358597
2022-09-15T11:44:39.799Z,9.358574